This is the latest recevied weather packets stored in our database for station/object DL8FX-6. If no packets are shown the sender has not sent any weather packets the latest 10 day(s).
| Time | Temp. | Humidity | Pressure | Rain* | Wind** | Luminosity | Snow |
|---|---|---|---|---|---|---|---|
| 1777728632 | 28.33° C | 21% | 1016.6 hPa | 0 mm | - | - | - |
| 1777727425 | 27.78° C | 21% | 1016.9 hPa | 0 mm | - | - | - |
| 1777726821 | 27.78° C | 21% | 1017.1 hPa | 0 mm | - | - | - |
| 1777722653 | 27.22° C | 25% | 1018 hPa | 0 mm | - | - | - |
| 1777720238 | 26.67° C | 25% | 1018.7 hPa | 0 mm | - | - | - |
| 1777708847 | 25° C | 31% | 1020.5 hPa | 0 mm | - | - | - |
| 1777708244 | 25° C | 31% | 1020.5 hPa | 0 mm | - | - | - |
| 1777704640 | 22.22° C | 40% | 1020.7 hPa | 0 mm | - | - | - |
| 1777704016 | 22.22° C | 42% | 1020.8 hPa | 0 mm | - | - | - |
| 1777702264 | 20° C | 44% | 1021 hPa | 0 mm | - | - | - |
| 1777699849 | 17.22° C | 65% | 1021.2 hPa | 0 mm | - | - | - |
| 1777691454 | 6.11° C | 91% | 1021.4 hPa | 0 mm | - | - | - |
| 1777688433 | 6.11° C | 90% | 1021.5 hPa | 0 mm | - | - | - |
| 1777687830 | 6.67° C | 90% | 1021.6 hPa | 0 mm | - | - | - |
| 1777685514 | 7.22° C | 89% | 1021.9 hPa | 0 mm | - | - | - |
| 1777683663 | 7.22° C | 88% | 1022.2 hPa | 0 mm | - | - | - |
| 1777681851 | 7.78° C | 82% | 1022.2 hPa | 0 mm | - | - | - |
| 1777679435 | 8.33° C | 81% | 1022.5 hPa | 0 mm | - | - | - |
| 1777678227 | 8.33° C | 80% | 1022.5 hPa | 0 mm | - | - | - |
| 1777675871 | 8.89° C | 78% | 1022.7 hPa | 0 mm | - | - | - |
| 1777672852 | 9.44° C | 77% | 1022.9 hPa | 0 mm | - | - | - |
| 1777670455 | 10.56° C | 75% | 1023 hPa | 0 mm | - | - | - |
| 1777666288 | 12.22° C | 71% | 1023.1 hPa | 0 mm | - | - | - |
| 1777657873 | 20.56° C | 48% | 1023 hPa | 0 mm | - | - | - |
| 1777651832 | 25° C | 29% | 1023.6 hPa | 0 mm | - | - | - |
* Rain latest hour (hover to see other rain measurements)
** Current wind speed in m/s (hover to see current wind gust speed)